AirNav   Pilot Hours Calculator
 
 629 users online  

FA58 Florida Hospital North Pinellas Heliport
Tarpon Springs, Florida, USA

GOING TO TARPON SPRINGS?


FAA INFORMATION EFFECTIVE 05 DECEMBER 2019

Location

FAA Identifier: FA58
Lat/Long: 28-07-57.4800N 082-45-30.0000W
28-07.958000N 082-45.500000W
28.1326333,-82.7583333
(estimated)
Elevation: 39 ft. / 12 m (estimated)
Variation: 04W (2000)
From city: 1 mile N of TARPON SPRINGS, FL
Time zone: UTC -5 (UTC -4 during Daylight Saving Time)
Zip code: 34689

Heliport Operations

Heliport use: Private use, MEDICAL USE.
Activation date: 05/2001
Control tower: no
ARTCC: MIAMI CENTER
FSS: SAINT PETERSBURG FLIGHT SERVICE STATION
Attendance: CONTINUOUS
Wind indicator: lighted
Segmented circle: no

Heliport Communications

WX AWOS-3P at CLW (9 nm S): 119.225 (727-449-2184)
WX ASOS at PIE (14 nm S): PHONE 727-531-3456
WX ASOS at TPA (15 nm SE): PHONE 813-873-7228

Nearby radio navigation aids

VOR radial/distance  VOR name  Freq  Var
PIEr349/14.1ST PETERSBURG VORTAC116.4005W

 
NDB name  Hdg/Dist  Freq  Var  ID
CAPOK346/8.736005WPI .--. ..
COSME288/12.736805WTP - .--.

Heliport Services

Runway Information

Helipad H1

Dimensions: 58 x 47 ft. / 18 x 14 m
Surface: asphalt
Latitude: 28-07.958000N
Longitude: 082-45.500000W
Elevation: 39.0 ft.
Traffic pattern: leftleft

Heliport Ownership and Management from official FAA records

Ownership: Privately-owned
Owner: HELEN ELLIS HOSPITAL
1395 S. PINELLAS AVE
TARPON SPRINGS, FL 34689
Phone 727-942-5061
Manager: GARY MEEKER
HELEN ELLIS HOSPITAL, 1395 S. PINELLAS AVE
TARPON SPRINGS, FL 34689
Phone 727-942-5061

Additional Remarks

FOR CD CTC TAMPA APCH AT 813-878-2528

Instrument Procedures

There are no published instrument procedures at FA58.

Some nearby airports with instrument procedures:

KCLW - Clearwater Air Park (9 nm S)
KPIE - St Pete-Clearwater International Airport (14 nm S)
KTPA - Tampa International Airport (15 nm SE)
KTPF - Peter O Knight Airport (21 nm SE)
KMCF - MacDill Air Force Base (21 nm SE)
 
Loc | Ops | Rwys | IFR | FBO | Links
Com | Nav | Svcs | Stats | Notes


 
Area around FA58 (Florida Hospital North Pinellas Heliport)
 
Road maps at: MapQuest Bing Google
 
Aerial photo
No photo
 
Sectional chart

 
Airport distance calculator
Flying to Florida Hospital North Pinellas Heliport? Find the distance to fly.

From to FA58

Sunrise and sunset
Times for 07-Dec-2019
 Local
(UTC-5)
 Zulu
(UTC)
Morning civil twilight06:4511:45
Sunrise07:1112:11
Sunset17:3422:34
Evening civil twilight18:0023:00

Current date and time
Zulu (UTC)  08-Dec-2019 03:27:04
Local (UTC-5)  07-Dec-2019 22:27:04
 
METAR
KCLW 
9nm S 
080315Z AUTO 00000KT 10SM SCT120 16/12 A3018 RMK AO2
KPIE 
14nm S 
080253Z 06004KT 10SM SCT120 19/13 A3017 RMK AO2 SLP216 T01890133 53006
KTPA 
16nm SE 
080253Z 04006KT 10SM BKN120 BKN340 19/12 A3018 RMK AO2 SLP220 T01890122 53007
TAF
KPIE 
14nm S 
071721Z 0718/0818 07005KT P6SM BKN100 FM072100 03006KT P6SM BKN100 FM080200 07006KT P6SM BKN100 FM081500 09006KT P6SM SCT030 SCT100
KTPA 
16nm SE 
072058Z 0721/0824 25005KT P6SM BKN110 FM072200 33005KT P6SM BKN110 FM080200 06003KT P6SM BKN110 FM081500 08005KT P6SM SCT030 FM082000 20006KT P6SM SCT045
NOTAMs
Click for the latest NOTAMs
NOTAMs are issued by the DoD/FAA and will open in a separate window not controlled by AirNav.

 

 
 

Would you like to see your business listed on this page?

 If your business provides an interesting product or service to pilots, flight crews, aircraft, or users of the Florida Hospital North Pinellas Heliport, you should consider listing it here.  To start the listing process, click on the button below
 
Add a business
 

Other Pages about Florida Hospital North Pinellas Heliport

Update a link
 
Copyright © AirNav, LLC. All rights reserved. Privacy Policy  Contact